createdAt,value
2019-03-09T00:01:39.793Z,8.01
2019-03-09T00:04:07.089Z,8.11
2019-03-09T00:06:34.329Z,8.03
2019-03-09T00:09:01.569Z,8.04
2019-03-09T00:11:30.415Z,8.05
2019-03-09T00:13:57.656Z,8.02
2019-03-09T00:16:24.920Z,7.99
2019-03-09T00:18:52.253Z,7.93
2019-03-09T00:21:19.539Z,7.86
2019-03-09T00:24:06.367Z,7.99
2019-03-09T00:26:55.944Z,7.90
2019-03-09T00:29:42.716Z,7.92
2019-03-09T00:32:13.231Z,7.97
2019-03-09T00:34:41.296Z,7.90
2019-03-09T00:37:08.583Z,7.80
2019-03-09T00:39:35.824Z,7.95
2019-03-09T00:42:03.486Z,7.96
2019-03-09T00:44:30.775Z,7.94
2019-03-09T00:46:58.053Z,7.97
2019-03-09T00:49:25.519Z,7.96
2019-03-09T00:51:52.806Z,7.90
2019-03-09T00:54:20.106Z,8.03
2019-03-09T00:56:47.372Z,8.05
2019-03-09T00:59:14.684Z,8.07
2019-03-09T01:01:41.954Z,8.11
2019-03-09T01:04:09.242Z,7.98
2019-03-09T01:06:36.494Z,7.96
2019-03-09T01:09:06.711Z,7.98
2019-03-09T01:11:34.000Z,7.95
2019-03-09T01:14:01.254Z,8.01
2019-03-09T01:16:28.699Z,7.95
2019-03-09T01:18:55.997Z,7.89
2019-03-09T01:21:23.238Z,7.97
2019-03-09T01:23:50.478Z,7.88
2019-03-09T01:26:17.860Z,7.97
2019-03-09T01:28:45.096Z,7.95
2019-03-09T01:31:12.326Z,7.86
2019-03-09T01:33:39.696Z,7.87
2019-03-09T01:36:06.945Z,7.92
2019-03-09T01:38:34.187Z,7.88
2019-03-09T01:41:01.473Z,7.80
2019-03-09T01:43:28.717Z,7.96
2019-03-09T01:45:55.951Z,7.97
2019-03-09T01:48:23.240Z,7.90
2019-03-09T01:50:50.460Z,8.07
2019-03-09T01:53:20.116Z,8.05
2019-03-09T01:55:47.482Z,8.14
2019-03-09T01:58:15.080Z,8.14
2019-03-09T02:00:42.497Z,8.23
2019-03-09T02:03:09.753Z,8.22
2019-03-09T02:05:39.169Z,8.23
2019-03-09T02:08:06.442Z,8.21
2019-03-09T02:10:33.814Z,8.29
2019-03-09T02:13:01.068Z,8.32
2019-03-09T02:15:28.338Z,8.34
2019-03-09T02:18:00.139Z,8.31
2019-03-09T02:20:27.412Z,8.41
2019-03-09T02:22:55.053Z,8.66
2019-03-09T02:25:22.318Z,8.57
2019-03-09T02:27:49.571Z,8.61
2019-03-09T02:30:18.073Z,8.68
2019-03-09T02:32:45.495Z,8.70
2019-03-09T02:35:12.883Z,8.78
2019-03-09T02:37:41.118Z,8.86
2019-03-09T02:40:27.013Z,8.92
2019-03-09T02:42:54.260Z,9.07
2019-03-09T02:45:22.256Z,8.95
2019-03-09T02:47:49.548Z,8.91
2019-03-09T02:50:16.921Z,8.84
2019-03-09T02:52:44.206Z,8.78
2019-03-09T02:55:11.876Z,8.85
2019-03-09T02:57:39.237Z,8.94
2019-03-09T03:00:08.280Z,8.98
2019-03-09T03:02:38.167Z,9.00
2019-03-09T03:05:05.806Z,8.96
2019-03-09T03:07:33.094Z,8.99
2019-03-09T03:10:00.442Z,9.19
2019-03-09T03:12:27.766Z,9.11
2019-03-09T03:14:54.992Z,8.96
2019-03-09T03:17:22.234Z,8.94
2019-03-09T03:19:49.500Z,8.82
2019-03-09T03:22:16.777Z,8.79
2019-03-09T03:24:44.088Z,8.77
2019-03-09T03:27:11.342Z,8.70
2019-03-09T03:29:38.624Z,8.77
2019-03-09T03:32:06.011Z,8.76
2019-03-09T03:34:33.297Z,8.78
2019-03-09T03:37:00.663Z,8.68
2019-03-09T03:39:28.901Z,8.72
2019-03-09T03:41:56.157Z,8.68
2019-03-09T03:44:23.451Z,8.64
2019-03-09T03:46:50.710Z,8.65
2019-03-09T03:49:17.953Z,8.61
2019-03-09T03:51:45.331Z,8.69
2019-03-09T03:54:12.617Z,8.63
2019-03-09T03:56:39.988Z,8.58
2019-03-09T03:59:07.358Z,8.64
2019-03-09T04:01:34.670Z,8.71
2019-03-09T04:04:01.946Z,8.71
2019-03-09T04:06:29.317Z,8.73
2019-03-09T04:08:56.750Z,8.70
2019-03-09T04:11:24.069Z,8.69
2019-03-09T04:13:51.315Z,8.84
2019-03-09T04:16:18.572Z,8.79
2019-03-09T04:18:45.862Z,8.64
2019-03-09T04:21:13.193Z,8.74
2019-03-09T04:23:40.420Z,8.70
2019-03-09T04:26:07.688Z,8.81
2019-03-09T04:28:35.001Z,8.69
2019-03-09T04:31:02.246Z,8.72
2019-03-09T04:33:29.700Z,8.70
2019-03-09T04:36:06.733Z,8.60
2019-03-09T04:38:34.325Z,8.59
2019-03-09T04:41:01.630Z,8.43
2019-03-09T04:43:28.953Z,8.40
2019-03-09T04:45:56.262Z,8.33
2019-03-09T04:48:23.495Z,8.37
2019-03-09T04:50:50.875Z,8.47
2019-03-09T04:53:18.266Z,8.45
2019-03-09T04:55:46.195Z,8.45
2019-03-09T04:58:13.446Z,8.47
2019-03-09T05:00:40.728Z,8.54
2019-03-09T05:03:08.015Z,8.43
2019-03-09T05:05:35.299Z,8.43
2019-03-09T05:08:56.668Z,8.31
2019-03-09T05:11:28.027Z,8.26
2019-03-09T05:14:02.670Z,8.26
2019-03-09T05:16:29.938Z,8.18
2019-03-09T05:18:57.176Z,8.29
2019-03-09T05:21:24.477Z,8.42
2019-03-09T05:23:51.730Z,8.35
2019-03-09T05:26:18.952Z,8.19
2019-03-09T05:28:46.251Z,8.32
2019-03-09T05:31:13.525Z,8.33
2019-03-09T05:33:40.797Z,8.11
2019-03-09T05:36:08.146Z,8.28
2019-03-09T05:38:35.387Z,8.20
2019-03-09T05:41:02.628Z,8.16
2019-03-09T05:43:29.916Z,8.10
2019-03-09T05:45:57.336Z,8.18
2019-03-09T05:48:24.598Z,8.14
2019-03-09T05:50:51.941Z,7.95
2019-03-09T05:53:20.866Z,8.20
2019-03-09T05:55:48.224Z,8.14
2019-03-09T05:58:15.527Z,8.30
2019-03-09T06:00:43.198Z,8.31
2019-03-09T06:03:10.439Z,8.38
2019-03-09T06:05:45.767Z,8.27
2019-03-09T06:08:13.010Z,8.39
2019-03-09T06:10:40.307Z,8.36
2019-03-09T06:13:07.541Z,8.27
2019-03-09T06:15:34.875Z,8.37
2019-03-09T06:18:02.135Z,8.41
2019-03-09T06:20:29.406Z,8.33
2019-03-09T06:22:56.682Z,8.55
2019-03-09T06:25:23.948Z,8.54
2019-03-09T06:27:51.226Z,8.58
2019-03-09T06:30:18.493Z,8.24
2019-03-09T06:33:23.280Z,8.20
2019-03-09T06:35:56.983Z,8.17
2019-03-09T06:38:49.785Z,8.23
2019-03-09T06:41:21.205Z,8.24
2019-03-09T06:43:48.452Z,8.26
2019-03-09T06:46:15.721Z,8.50
2019-03-09T06:48:43.006Z,8.46
2019-03-09T06:51:10.250Z,8.43
2019-03-09T06:53:37.555Z,8.32
2019-03-09T06:56:04.840Z,8.26
2019-03-09T06:58:35.561Z,8.22
2019-03-09T07:01:21.517Z,8.31
2019-03-09T07:03:48.954Z,8.20
2019-03-09T07:06:16.292Z,8.17
2019-03-09T07:08:43.947Z,8.30
2019-03-09T07:11:12.418Z,8.29
2019-03-09T07:13:40.040Z,8.49
2019-03-09T07:16:07.385Z,8.41
2019-03-09T07:18:38.101Z,8.46
2019-03-09T07:21:05.413Z,8.38
2019-03-09T07:23:32.712Z,8.36
2019-03-09T07:26:01.105Z,8.57
2019-03-09T07:28:28.382Z,8.46
2019-03-09T07:30:57.208Z,8.41
2019-03-09T07:33:24.444Z,8.38
2019-03-09T07:35:51.735Z,8.61
2019-03-09T07:38:19.047Z,8.64
2019-03-09T07:40:46.281Z,8.43
2019-03-09T07:43:15.819Z,8.66
2019-03-09T07:45:43.093Z,8.72
2019-03-09T07:48:10.355Z,8.74
2019-03-09T07:50:37.757Z,8.77
2019-03-09T07:53:04.995Z,8.81
2019-03-09T07:55:32.290Z,8.79
2019-03-09T07:58:04.142Z,9.00
2019-03-09T08:00:31.489Z,9.00
2019-03-09T08:02:59.278Z,9.04
2019-03-09T08:05:26.538Z,9.09
2019-03-09T08:07:53.807Z,9.08
2019-03-09T08:10:21.294Z,9.08
2019-03-09T08:12:48.560Z,9.08
2019-03-09T08:15:16.578Z,9.13
2019-03-09T08:17:43.920Z,9.21
2019-03-09T08:20:11.392Z,9.09
2019-03-09T08:22:38.666Z,9.20
2019-03-09T08:25:06.975Z,9.13
2019-03-09T08:27:34.383Z,9.07
2019-03-09T08:30:02.565Z,8.95
2019-03-09T08:32:30.093Z,8.98
2019-03-09T08:34:57.415Z,9.06
2019-03-09T08:37:26.390Z,9.12
2019-03-09T08:39:53.706Z,9.03
2019-03-09T08:42:20.961Z,9.06
2019-03-09T08:44:48.269Z,9.03
2019-03-09T08:47:15.784Z,9.20
2019-03-09T08:49:43.154Z,9.08
2019-03-09T08:52:10.463Z,9.08
2019-03-09T08:54:37.736Z,9.17
2019-03-09T08:57:05.090Z,9.17
2019-03-09T08:59:32.361Z,9.39
2019-03-09T09:01:59.829Z,9.39
2019-03-09T09:04:27.177Z,9.50
2019-03-09T09:06:54.811Z,9.59
2019-03-09T09:09:22.122Z,9.61
2019-03-09T09:11:49.384Z,9.61
2019-03-09T09:14:16.696Z,9.53
2019-03-09T09:16:43.994Z,9.41
2019-03-09T09:19:11.276Z,9.49
2019-03-09T09:21:38.534Z,9.66
2019-03-09T09:24:05.844Z,9.58
2019-03-09T09:26:33.101Z,9.64
2019-03-09T09:29:00.469Z,9.71
2019-03-09T09:31:27.821Z,9.81
2019-03-09T09:33:55.075Z,9.67
2019-03-09T09:36:22.380Z,9.78
2019-03-09T09:38:49.714Z,9.83
2019-03-09T09:41:17.001Z,9.94
2019-03-09T09:43:44.454Z,9.80
2019-03-09T09:46:11.845Z,9.88
2019-03-09T09:48:39.301Z,9.83
2019-03-09T09:51:06.566Z,9.83
2019-03-09T09:53:33.993Z,9.87
2019-03-09T09:56:01.294Z,9.95
2019-03-09T09:58:28.599Z,10.09
2019-03-09T10:00:55.848Z,10.10
2019-03-09T10:03:23.123Z,10.01
2019-03-09T10:05:50.426Z,10.06
2019-03-09T10:08:17.735Z,10.23
2019-03-09T10:10:45.023Z,10.34
2019-03-09T10:13:12.352Z,10.27
2019-03-09T10:15:39.683Z,10.07
2019-03-09T10:18:06.990Z,10.21
2019-03-09T10:20:34.327Z,10.27
2019-03-09T10:23:04.663Z,10.27
2019-03-09T10:25:31.757Z,10.18
2019-03-09T10:27:59.279Z,10.28
2019-03-09T10:30:26.608Z,10.14
2019-03-09T10:32:53.869Z,10.00
2019-03-09T10:35:21.189Z,10.00
2019-03-09T10:37:48.710Z,9.96
2019-03-09T10:40:16.485Z,10.14
2019-03-09T10:42:43.893Z,10.13
2019-03-09T10:45:11.283Z,10.27
2019-03-09T10:47:38.536Z,10.29
2019-03-09T10:50:08.178Z,10.37
2019-03-09T10:52:35.449Z,10.36
2019-03-09T10:55:03.437Z,10.32
2019-03-09T10:57:30.760Z,10.29
2019-03-09T10:59:58.038Z,10.35
2019-03-09T11:02:25.330Z,10.39
2019-03-09T11:04:52.723Z,10.39
2019-03-09T11:07:20.076Z,10.68
2019-03-09T11:09:47.350Z,10.68
2019-03-09T11:12:14.727Z,10.58
2019-03-09T11:14:42.111Z,10.77
2019-03-09T11:17:09.406Z,10.73
2019-03-09T11:19:36.726Z,10.82
2019-03-09T11:22:04.027Z,10.93
2019-03-09T11:24:31.323Z,10.91
2019-03-09T11:26:58.635Z,11.04
2019-03-09T11:29:28.188Z,10.91
2019-03-09T11:31:55.125Z,10.80
2019-03-09T11:34:22.375Z,10.85
2019-03-09T11:36:49.748Z,10.79
2019-03-09T11:39:17.016Z,10.77
2019-03-09T11:41:44.390Z,10.80
2019-03-09T11:44:11.696Z,10.80
2019-03-09T11:46:41.368Z,10.86
2019-03-09T11:49:08.603Z,10.77
2019-03-09T11:51:35.947Z,10.75
2019-03-09T11:54:03.220Z,10.79
2019-03-09T11:56:30.520Z,10.72
2019-03-09T11:58:57.809Z,10.73
2019-03-09T12:01:25.069Z,10.81
2019-03-09T12:03:52.382Z,10.84
2019-03-09T12:06:19.696Z,10.82
2019-03-09T12:08:46.952Z,10.80
2019-03-09T12:11:14.255Z,10.83
2019-03-09T12:13:41.536Z,10.85
2019-03-09T12:16:08.870Z,10.85
2019-03-09T12:18:36.181Z,10.79
2019-03-09T12:21:03.433Z,10.81
2019-03-09T12:23:30.708Z,10.81
2019-03-09T12:25:58.015Z,10.82
2019-03-09T12:28:25.285Z,10.80
2019-03-09T12:30:52.756Z,10.85
2019-03-09T12:33:20.093Z,10.83
2019-03-09T12:35:47.391Z,10.81
2019-03-09T12:38:14.747Z,10.74
2019-03-09T12:40:42.147Z,10.80
2019-03-09T12:43:09.535Z,10.75
2019-03-09T12:45:37.019Z,10.59
2019-03-09T12:48:04.314Z,10.59
2019-03-09T12:50:31.658Z,10.69
2019-03-09T12:52:58.952Z,10.70
2019-03-09T12:55:26.210Z,10.78
2019-03-09T12:57:53.531Z,10.83
2019-03-09T13:00:20.817Z,10.78
2019-03-09T13:02:48.340Z,10.69
2019-03-09T13:05:16.007Z,10.69
2019-03-09T13:07:43.316Z,10.60
2019-03-09T13:10:11.197Z,10.66
2019-03-09T13:12:38.473Z,10.63
2019-03-09T13:15:06.351Z,10.52
2019-03-09T13:17:36.194Z,10.73
2019-03-09T13:20:03.846Z,10.73
2019-03-09T13:22:31.152Z,10.66
2019-03-09T13:24:58.839Z,10.48
2019-03-09T13:27:26.467Z,10.35
2019-03-09T13:29:54.022Z,10.35
2019-03-09T13:32:21.310Z,10.32
2019-03-09T13:34:48.809Z,10.21
2019-03-09T13:37:16.090Z,9.78
2019-03-09T13:39:43.382Z,9.78
2019-03-09T13:42:10.663Z,9.91
2019-03-09T13:44:37.943Z,9.62
2019-03-09T13:47:05.179Z,9.62
2019-03-09T13:49:32.441Z,9.52
2019-03-09T13:51:59.710Z,9.61
2019-03-09T13:54:26.991Z,9.39
2019-03-09T13:56:54.245Z,9.48
2019-03-09T13:59:21.496Z,9.46
2019-03-09T14:01:48.780Z,9.46
2019-03-09T14:04:16.340Z,9.16
2019-03-09T14:06:43.576Z,9.14
2019-03-09T14:09:10.926Z,9.23
2019-03-09T14:11:38.659Z,9.40
2019-03-09T14:14:05.945Z,9.21
2019-03-09T14:16:33.212Z,9.21
2019-03-09T14:19:02.084Z,9.25
2019-03-09T14:21:29.407Z,9.35
2019-03-09T14:23:56.778Z,9.48
2019-03-09T14:26:25.536Z,9.59
2019-03-09T14:28:52.826Z,9.61
2019-03-09T14:31:20.115Z,9.76
2019-03-09T14:33:47.436Z,9.73
2019-03-09T14:36:14.718Z,9.96
2019-03-09T14:38:42.087Z,10.09
2019-03-09T14:41:09.369Z,10.10
2019-03-09T14:43:36.608Z,10.05
2019-03-09T14:46:03.908Z,10.17
2019-03-09T14:48:31.227Z,10.17
2019-03-09T14:50:58.490Z,10.02
2019-03-09T14:53:25.745Z,9.46
2019-03-09T14:55:53.026Z,8.88
2019-03-09T14:58:20.564Z,8.76
2019-03-09T15:00:47.865Z,8.64
2019-03-09T15:03:15.117Z,8.65
2019-03-09T15:05:42.383Z,8.77
2019-03-09T15:08:09.941Z,8.66
2019-03-09T15:10:37.228Z,8.76
2019-03-09T15:13:04.482Z,8.76
2019-03-09T15:15:31.788Z,8.73
2019-03-09T15:17:59.136Z,8.59
2019-03-09T15:20:26.371Z,8.52
2019-03-09T15:22:53.619Z,8.51
2019-03-09T15:25:20.924Z,8.30
2019-03-09T15:27:48.198Z,8.13
2019-03-09T15:30:15.656Z,7.95
2019-03-09T15:32:42.971Z,7.78
2019-03-09T15:35:10.304Z,7.61
2019-03-09T15:37:37.589Z,7.40
2019-03-09T15:40:05.013Z,7.26
2019-03-09T15:42:32.313Z,7.23
2019-03-09T15:44:59.616Z,7.06
2019-03-09T15:47:26.871Z,7.06
2019-03-09T15:49:54.126Z,6.92
2019-03-09T15:52:21.586Z,6.93
2019-03-09T15:54:48.868Z,6.75
2019-03-09T15:57:16.119Z,6.70
2019-03-09T15:59:43.424Z,6.69
2019-03-09T16:02:11.011Z,6.72
2019-03-09T16:04:38.252Z,6.66
2019-03-09T16:07:06.640Z,6.56
2019-03-09T16:09:34.197Z,6.64
2019-03-09T16:12:01.465Z,6.67
2019-03-09T16:14:28.722Z,6.74
2019-03-09T16:16:55.960Z,6.83
2019-03-09T16:19:23.445Z,6.85
2019-03-09T16:21:50.725Z,6.74
2019-03-09T16:24:18.011Z,6.71
2019-03-09T16:26:45.422Z,6.71
2019-03-09T16:29:12.666Z,6.84
2019-03-09T16:31:41.993Z,6.86
2019-03-09T16:34:09.251Z,6.87
2019-03-09T16:36:36.526Z,6.84
2019-03-09T16:39:07.872Z,6.83
2019-03-09T16:41:37.860Z,6.97
2019-03-09T16:44:05.215Z,6.98
2019-03-09T16:46:32.476Z,6.97
2019-03-09T16:48:59.756Z,7.02
2019-03-09T16:51:26.979Z,6.98
2019-03-09T16:53:54.233Z,7.02
2019-03-09T16:56:21.478Z,6.93
2019-03-09T16:58:48.736Z,6.90
2019-03-09T17:01:15.974Z,6.87
2019-03-09T17:03:43.286Z,6.95
2019-03-09T17:06:10.555Z,7.10
2019-03-09T17:08:37.818Z,6.90
2019-03-09T17:11:05.085Z,6.80
2019-03-09T17:13:32.399Z,6.79
2019-03-09T17:15:59.680Z,6.88
2019-03-09T17:18:26.959Z,6.94
2019-03-09T17:20:56.682Z,6.88
2019-03-09T17:23:23.618Z,6.82
2019-03-09T17:25:50.883Z,6.90
2019-03-09T17:28:18.212Z,6.88
2019-03-09T17:30:45.447Z,6.94
2019-03-09T17:33:12.673Z,6.94
2019-03-09T17:35:41.299Z,7.01
2019-03-09T17:38:08.581Z,6.85
2019-03-09T17:40:36.894Z,6.83
2019-03-09T17:43:04.238Z,6.84
2019-03-09T17:45:32.013Z,6.91
2019-03-09T17:47:59.308Z,6.99
2019-03-09T17:50:26.675Z,7.10
2019-03-09T17:52:53.918Z,7.10
2019-03-09T17:55:21.312Z,7.18
2019-03-09T17:57:48.525Z,7.26
2019-03-09T18:00:18.219Z,7.16
2019-03-09T18:02:45.484Z,7.21
2019-03-09T18:05:12.904Z,7.36
2019-03-09T18:07:40.223Z,7.19
2019-03-09T18:10:14.006Z,7.23
2019-03-09T18:12:41.263Z,7.33
2019-03-09T18:15:11.373Z,7.30
2019-03-09T18:17:38.653Z,7.39
2019-03-09T18:20:06.303Z,7.42
2019-03-09T18:22:33.669Z,7.58
2019-03-09T18:25:00.951Z,7.58
2019-03-09T18:27:28.564Z,7.51
2019-03-09T18:29:56.873Z,7.53
2019-03-09T18:32:24.277Z,7.55
2019-03-09T18:34:51.535Z,7.52
2019-03-09T18:37:18.776Z,7.54
2019-03-09T18:39:46.074Z,7.36
2019-03-09T18:42:13.307Z,7.36
2019-03-09T18:44:40.583Z,7.39
2019-03-09T18:47:07.818Z,7.46
2019-03-09T18:49:37.586Z,7.50
2019-03-09T18:52:04.818Z,7.63
2019-03-09T18:54:32.084Z,7.57
2019-03-09T18:56:59.379Z,7.67
2019-03-09T18:59:26.615Z,7.54
2019-03-09T19:01:53.852Z,7.51
2019-03-09T19:04:21.144Z,7.62
2019-03-09T19:06:48.389Z,7.67
2019-03-09T19:09:15.667Z,7.42
2019-03-09T19:11:42.918Z,7.56
2019-03-09T19:14:10.204Z,7.62
2019-03-09T19:16:37.515Z,7.51
2019-03-09T19:19:04.772Z,7.42
2019-03-09T19:21:32.036Z,7.43
2019-03-09T19:23:59.401Z,7.49
2019-03-09T19:26:26.695Z,7.52
2019-03-09T19:28:53.944Z,7.54
2019-03-09T19:31:21.213Z,7.56
2019-03-09T19:33:48.637Z,7.70
2019-03-09T19:36:15.870Z,7.57
2019-03-09T19:38:43.193Z,7.53
2019-03-09T19:41:10.456Z,7.48
2019-03-09T19:43:37.702Z,7.50
2019-03-09T19:46:04.984Z,7.51
2019-03-09T19:48:32.239Z,7.50
2019-03-09T19:50:59.502Z,7.58
2019-03-09T19:53:26.751Z,7.74
2019-03-09T19:55:53.987Z,7.71
2019-03-09T19:58:21.200Z,7.71
2019-03-09T20:00:48.519Z,7.47
2019-03-09T20:03:15.762Z,7.75
2019-03-09T20:05:43.043Z,7.94
2019-03-09T20:08:10.322Z,7.66
2019-03-09T20:10:37.630Z,7.75
2019-03-09T20:13:07.250Z,7.84
2019-03-09T20:15:34.768Z,7.78
2019-03-09T20:18:02.096Z,7.78
2019-03-09T20:20:29.388Z,7.78
2019-03-09T20:22:56.629Z,7.68
2019-03-09T20:25:24.115Z,7.61
2019-03-09T20:27:51.373Z,7.67
2019-03-09T20:30:18.652Z,7.67
2019-03-09T20:32:47.296Z,7.72
2019-03-09T20:35:14.623Z,7.86
2019-03-09T20:37:41.936Z,7.74
2019-03-09T20:40:09.459Z,7.74
2019-03-09T20:42:37.285Z,7.72
2019-03-09T20:45:06.956Z,7.58
2019-03-09T20:47:34.407Z,7.55
2019-03-09T20:50:01.676Z,7.78
2019-03-09T20:52:29.002Z,8.01
2019-03-09T20:54:56.320Z,7.89
2019-03-09T20:57:23.552Z,7.75
2019-03-09T20:59:51.385Z,7.73
2019-03-09T21:05:57.294Z,7.87
2019-03-09T21:08:24.524Z,7.77
2019-03-09T21:10:51.782Z,7.66
2019-03-09T21:13:19.087Z,7.66
2019-03-09T21:15:46.303Z,7.90
2019-03-09T21:18:13.549Z,8.02
2019-03-09T21:20:40.852Z,7.77
2019-03-09T21:23:08.097Z,7.83
2019-03-09T21:25:35.463Z,7.91
2019-03-09T21:28:02.700Z,7.82
2019-03-09T21:30:29.941Z,8.05
2019-03-09T21:32:57.250Z,7.85
2019-03-09T21:35:24.502Z,7.88
2019-03-09T21:37:51.759Z,7.92
2019-03-09T21:40:19.043Z,7.83
2019-03-09T21:42:59.362Z,7.74
2019-03-09T21:45:26.614Z,7.90
2019-03-09T21:47:53.884Z,7.93
2019-03-09T21:50:21.210Z,7.84
2019-03-09T21:52:48.503Z,7.93
2019-03-09T21:55:15.756Z,7.93
2019-03-09T21:57:43.079Z,7.96
2019-03-09T22:00:11.608Z,7.93
2019-03-09T22:02:38.877Z,7.87
2019-03-09T22:05:08.195Z,7.85
2019-03-09T22:07:35.446Z,7.94
2019-03-09T22:10:02.776Z,7.91
2019-03-09T22:12:30.073Z,7.67
2019-03-09T22:14:57.322Z,7.69
2019-03-09T22:17:24.593Z,8.11
2019-03-09T22:19:51.866Z,7.89
2019-03-09T22:22:19.338Z,7.91
2019-03-09T22:24:46.601Z,7.83
2019-03-09T22:27:13.872Z,7.72
2019-03-09T22:29:41.110Z,7.91
2019-03-09T22:32:08.696Z,7.70
2019-03-09T22:34:35.936Z,7.79
2019-03-09T22:37:03.212Z,7.80
2019-03-09T22:39:30.477Z,7.83
2019-03-09T22:41:57.779Z,7.97
2019-03-09T22:44:25.092Z,7.75
2019-03-09T22:46:52.616Z,7.75
2019-03-09T22:49:19.859Z,7.80
2019-03-09T22:51:47.132Z,7.72
2019-03-09T22:54:14.394Z,7.75
2019-03-09T22:56:41.648Z,7.74
2019-03-09T22:59:08.920Z,7.60
2019-03-09T23:01:36.253Z,7.57
2019-03-09T23:04:03.510Z,7.81
2019-03-09T23:06:30.735Z,7.76
2019-03-09T23:08:58.006Z,7.79
2019-03-09T23:11:25.252Z,7.87
2019-03-09T23:13:52.560Z,7.71
2019-03-09T23:16:19.819Z,7.96
2019-03-09T23:18:47.113Z,7.96
2019-03-09T23:21:14.357Z,7.88
2019-03-09T23:23:41.603Z,8.05
2019-03-09T23:26:08.886Z,8.06
2019-03-09T23:28:48.556Z,8.03
2019-03-09T23:31:15.821Z,7.85
2019-03-09T23:33:43.097Z,7.78
2019-03-09T23:36:10.331Z,7.72
2019-03-09T23:38:37.773Z,7.92
2019-03-09T23:41:05.160Z,7.79
2019-03-09T23:43:32.469Z,7.82
2019-03-09T23:45:59.782Z,7.77
2019-03-09T23:48:27.059Z,7.80
2019-03-09T23:50:54.345Z,7.77
2019-03-09T23:53:21.618Z,7.68
2019-03-09T23:55:48.883Z,7.76
2019-03-09T23:58:16.163Z,7.85
